Map

Track Data

SID SEASON NUMBER BASIN SUBBASIN NAME ISO_TIME NATURE LAT LON WMO_WIND WMO_PRES WMO_AGENCY TRACK_TYPE DIST2LAND LANDFALL IFLAG USA_AGENCY USA_ATCF_ID USA_LAT USA_LON USA_RECORD USA_STATUS USA_WIND USA_PRES USA_SSHS USA_R34_NE USA_R34_SE USA_R34_SW USA_R34_NW USA_R50_NE USA_R50_SE USA_R50_SW USA_R50_NW USA_R64_NE USA_R64_SE USA_R64_SW USA_R64_NW USA_POCI USA_ROCI USA_RMW USA_EYE TOKYO_LAT TOKYO_LON TOKYO_GRADE TOKYO_WIND TOKYO_PRES TOKYO_R50_DIR TOKYO_R50_LONG TOKYO_R50_SHORT TOKYO_R30_DIR TOKYO_R30_LONG TOKYO_R30_SHORT TOKYO_LAND CMA_LAT CMA_LON CMA_CAT CMA_WIND CMA_PRES HKO_LAT HKO_LON HKO_CAT HKO_WIND HKO_PRES NEWDELHI_LAT NEWDELHI_LON NEWDELHI_GRADE NEWDELHI_WIND NEWDELHI_PRES NEWDELHI_CI NEWDELHI_DP NEWDELHI_POCI REUNION_LAT REUNION_LON REUNION_TYPE REUNION_WIND REUNION_PRES REUNION_TNUM REUNION_CI REUNION_RMW REUNION_R34_NE REUNION_R34_SE REUNION_R34_SW REUNION_R34_NW REUNION_R50_NE REUNION_R50_SE REUNION_R50_SW REUNION_R50_NW REUNION_R64_NE REUNION_R64_SE REUNION_R64_SW REUNION_R64_NW BOM_LAT BOM_LON BOM_TYPE BOM_WIND BOM_PRES BOM_TNUM BOM_CI BOM_RMW BOM_R34_NE BOM_R34_SE BOM_R34_SW BOM_R34_NW BOM_R50_NE BOM_R50_SE BOM_R50_SW BOM_R50_NW BOM_R64_NE BOM_R64_SE BOM_R64_SW BOM_R64_NW BOM_ROCI BOM_POCI BOM_EYE BOM_POS_METHOD BOM_PRES_METHOD NADI_LAT NADI_LON NADI_CAT NADI_WIND NADI_PRES WELLINGTON_LAT WELLINGTON_LON WELLINGTON_WIND WELLINGTON_PRES DS824_LAT DS824_LON DS824_STAGE DS824_WIND DS824_PRES TD9636_LAT TD9636_LON TD9636_STAGE TD9636_WIND TD9636_PRES TD9635_LAT TD9635_LON TD9635_WIND TD9635_PRES TD9635_ROCI NEUMANN_LAT NEUMANN_LON NEUMANN_CLASS NEUMANN_WIND NEUMANN_PRES MLC_LAT MLC_LON MLC_CLASS MLC_WIND MLC_PRES USA_GUST BOM_GUST BOM_GUST_PER REUNION_GUST REUNION_GUST_PER USA_SEAHGT USA_SEARAD_NE USA_SEARAD_SE USA_SEARAD_SW USA_SEARAD_NW STORM_SPEED STORM_DIR
1992213N12256 1992 62 EP MM JAVIER 1992-07-30 18:00:00 TS 12.3000 -103.600 25 1010 hurdat_epa main 620 620 O_____________ hurdat_epa EP111992 12.3000 -103.600 TD 25 1010 -1 9 279
1992213N12256 1992 62 EP MM JAVIER 1992-07-30 21:00:00 TS 12.3727 -104.045 main 630 630 P_____________ EP111992 12.3727 -104.045 TD 25 1010 -1 9 276
1992213N12256 1992 62 EP MM JAVIER 1992-07-31 00:00:00 TS 12.4000 -104.500 25 1010 hurdat_epa main 659 659 O_____________ hurdat_epa EP111992 12.4000 -104.500 TD 25 1010 -1 9 269
1992213N12256 1992 62 EP MM JAVIER 1992-07-31 03:00:00 TS 12.3574 -104.978 main 676 676 P_____________ EP111992 12.3574 -104.978 TD 27 1009 -1 10 264
1992213N12256 1992 62 EP MM JAVIER 1992-07-31 06:00:00 TS 12.3000 -105.500 30 1009 hurdat_epa main 705 705 O_____________ hurdat_epa EP111992 12.3000 -105.500 TD 30 1009 -1 11 266
1992213N12256 1992 62 EP MM JAVIER 1992-07-31 09:00:00 TS 12.2849 -106.078 main 727 727 P_____________ EP111992 12.2849 -106.078 TD 30 1009 -1 12 270
1992213N12256 1992 62 EP MM JAVIER 1992-07-31 12:00:00 TS 12.3000 -106.700 30 1009 hurdat_epa main 754 754 O_____________ hurdat_epa EP111992 12.3000 -106.700 TD 30 1009 -1 13 272
1992213N12256 1992 62 EP MM JAVIER 1992-07-31 15:00:00 TS 12.3275 -107.358 main 791 791 P_____________ EP111992 12.3275 -107.358 TD 30 1009 -1 13 275
1992213N12256 1992 62 EP MM JAVIER 1992-07-31 18:00:00 TS 12.4000 -108.000 30 1009 hurdat_epa main 817 817 O_____________ hurdat_epa EP111992 12.4000 -108.000 TD 30 1009 -1 12 280
1992213N12256 1992 62 EP MM JAVIER 1992-07-31 21:00:00 TS 12.5349 -108.580 main 848 840 P_____________ EP111992 12.5349 -108.580 TD 30 1009 -1 11 286
1992213N12256 1992 62 EP MM JAVIER 1992-08-01 00:00:00 TS 12.7000 -109.100 30 1009 hurdat_epa main 860 860 O_____________ hurdat_epa EP111992 12.7000 -109.100 TD 30 1009 -1 10 288
1992213N12256 1992 62 EP MM JAVIER 1992-08-01 03:00:00 TS 12.8422 -109.543 main 874 871 P_____________ EP111992 12.8422 -109.543 TD 30 1008 -1 9 289
1992213N12256 1992 62 EP MM JAVIER 1992-08-01 06:00:00 TS 13.0000 -110.000 30 1008 hurdat_epa main 888 886 O_____________ hurdat_epa EP111992 13.0000 -110.000 TD 30 1008 -1 11 290
1992213N12256 1992 62 EP MM JAVIER 1992-08-01 09:00:00 TS 13.1999 -110.562 main 913 912 P_____________ EP111992 13.1999 -110.562 TD 30 1008 -1 12 289
1992213N12256 1992 62 EP MM JAVIER 1992-08-01 12:00:00 TS 13.4000 -111.200 30 1008 hurdat_epa main 942 942 O_____________ hurdat_epa EP111992 13.4000 -111.200 TD 30 1008 -1 13 285
1992213N12256 1992 62 EP MM JAVIER 1992-08-01 15:00:00 TS 13.5498 -111.870 main 987 979 P_____________ EP111992 13.5498 -111.870 TD 30 1007 -1 14 282
1992213N12256 1992 62 EP MM JAVIER 1992-08-01 18:00:00 TS 13.7000 -112.600 30 1007 hurdat_epa main 1027 1027 O_____________ hurdat_epa EP111992 13.7000 -112.600 TD 30 1007 -1 15 283
1992213N12256 1992 62 EP MM JAVIER 1992-08-01 21:00:00 TS 13.8925 -113.393 main 1068 1068 P_____________ EP111992 13.8925 -113.393 TD 30 1006 -1 16 284
1992213N12256 1992 62 EP MM JAVIER 1992-08-02 00:00:00 TS 14.1000 -114.200 30 1006 hurdat_epa main 1079 1077 O_____________ hurdat_epa EP111992 14.1000 -114.200 TD 30 1006 -1 16 285
1992213N12256 1992 62 EP MM JAVIER 1992-08-02 03:00:00 TS 14.2923 -114.973 main 1096 1096 P_____________ EP111992 14.2923 -114.973 TD 32 1005 -1 15 285
1992213N12256 1992 62 EP MM JAVIER 1992-08-02 06:00:00 TS 14.5000 -115.700 35 1005 hurdat_epa main 1114 1114 O_____________ hurdat_epa EP111992 14.5000 -115.700 TS 35 1005 0 14 288
1992213N12256 1992 62 EP MM JAVIER 1992-08-02 09:00:00 TS 14.7348 -116.380 main 1137 1134 P_____________ EP111992 14.7348 -116.380 TS 37 1005 0 14 292
1992213N12256 1992 62 EP MM JAVIER 1992-08-02 12:00:00 TS 15.0000 -117.000 40 1005 hurdat_epa main 1149 1147 O_____________ hurdat_epa EP111992 15.0000 -117.000 TS 40 1005 0 13 296
1992213N12256 1992 62 EP MM JAVIER 1992-08-02 15:00:00 TS 15.3073 -117.580 main 1165 1163 P_____________ EP111992 15.3073 -117.580 TS 42 1002 0 12 299
1992213N12256 1992 62 EP MM JAVIER 1992-08-02 18:00:00 TS 15.6000 -118.100 45 1000 hurdat_epa main 1178 1178 O_____________ hurdat_epa EP111992 15.6000 -118.100 TS 45 1000 0 11 299
1992213N12256 1992 62 EP MM JAVIER 1992-08-02 21:00:00 TS 15.8223 -118.558 main 1201 1193 P_____________ EP111992 15.8223 -118.558 TS 47 999 0 10 295
1992213N12256 1992 62 EP MM JAVIER 1992-08-03 00:00:00 TS 16.0000 -119.000 50 999 hurdat_epa main 1209 1206 O_____________ hurdat_epa EP111992 16.0000 -119.000 TS 50 999 0 10 291
1992213N12256 1992 62 EP MM JAVIER 1992-08-03 03:00:00 TS 16.1724 -119.493 main 1223 1223 P_____________ EP111992 16.1724 -119.493 TS 50 999 0 10 287
1992213N12256 1992 62 EP MM JAVIER 1992-08-03 06:00:00 TS 16.3000 -120.000 50 999 hurdat_epa main 1247 1247 O_____________ hurdat_epa EP111992 16.3000 -120.000 TS 50 999 0 10 281
1992213N12256 1992 62 EP MM JAVIER 1992-08-03 09:00:00 TS 16.3574 -120.500 main 1274 1274 P_____________ EP111992 16.3574 -120.500 TS 50 998 0 10 276
1992213N12256 1992 62 EP MM JAVIER 1992-08-03 12:00:00 TS 16.4000 -121.000 50 998 hurdat_epa main 1310 1310 O_____________ hurdat_epa EP111992 16.4000 -121.000 TS 50 998 0 10 278
1992213N12256 1992 62 EP MM JAVIER 1992-08-03 15:00:00 TS 16.4924 -121.507 main 1339 1339 P_____________ EP111992 16.4924 -121.507 TS 52 997 0 10 282
1992213N12256 1992 62 EP MM JAVIER 1992-08-03 18:00:00 TS 16.6000 -122.000 55 997 hurdat_epa main 1369 1369 O_____________ hurdat_epa EP111992 16.6000 -122.000 TS 55 997 0 9 283
1992213N12256 1992 62 EP MM JAVIER 1992-08-03 21:00:00 TS 16.6999 -122.465 main 1401 1401 P_____________ EP111992 16.6999 -122.465 TS 55 996 0 9 283
1992213N12256 1992 62 EP MM JAVIER 1992-08-04 00:00:00 TS 16.8000 -122.900 55 996 hurdat_epa main 1426 1426 O_____________ hurdat_epa EP111992 16.8000 -122.900 TS 55 996 0 8 283
1992213N12256 1992 62 EP MM JAVIER 1992-08-04 03:00:00 TS 16.8924 -123.315 main 1451 1451 P_____________ EP111992 16.8924 -123.315 TS 55 995 0 8 285
1992213N12256 1992 62 EP MM JAVIER 1992-08-04 06:00:00 TS 17.0000 -123.700 55 995 hurdat_epa main 1477 1477 O_____________ hurdat_epa EP111992 17.0000 -123.700 TS 55 995 0 8 290
1992213N12256 1992 62 EP MM JAVIER 1992-08-04 09:00:00 TS 17.1499 -124.065 main 1504 1497 P_____________ EP111992 17.1499 -124.065 TS 55 994 0 7 294
1992213N12256 1992 62 EP MM JAVIER 1992-08-04 12:00:00 TS 17.3000 -124.400 55 994 hurdat_epa main 1509 1509 O_____________ hurdat_epa EP111992 17.3000 -124.400 TS 55 994 0 6 292
1992213N12256 1992 62 EP MM JAVIER 1992-08-04 15:00:00 TS 17.3923 -124.693 main 1520 1520 P_____________ EP111992 17.3923 -124.693 TS 55 993 0 6 289
1992213N12256 1992 62 EP MM JAVIER 1992-08-04 18:00:00 TS 17.5000 -125.000 55 993 hurdat_epa main 1532 1530 O_____________ hurdat_epa EP111992 17.5000 -125.000 TS 55 993 0 7 295
1992213N12256 1992 62 EP MM JAVIER 1992-08-04 21:00:00 TS 17.7000 -125.377 main 1543 1542 P_____________ EP111992 17.7000 -125.377 TS 55 992 0 9 298
1992213N12256 1992 62 EP MM JAVIER 1992-08-05 00:00:00 TS 17.9000 -125.800 55 992 hurdat_epa main 1555 1555 O_____________ hurdat_epa EP111992 17.9000 -125.800 TS 55 992 0 9 292
1992213N12256 1992 62 EP MM JAVIER 1992-08-05 03:00:00 TS 18.0224 -126.235 main 1576 1576 P_____________ EP111992 18.0224 -126.235 TS 57 991 0 9 283
1992213N12256 1992 62 EP MM JAVIER 1992-08-05 06:00:00 TS 18.1000 -126.700 60 990 hurdat_epa main 1606 1606 O_____________ hurdat_epa EP111992 18.1000 -126.700 TS 60 990 0 9 278
1992213N12256 1992 62 EP MM JAVIER 1992-08-05 09:00:00 TS 18.1500 -127.200 main 1644 1637 P_____________ EP111992 18.1500 -127.200 TS 60 989 0 10 276
1992213N12256 1992 62 EP MM JAVIER 1992-08-05 12:00:00 TS 18.2000 -127.700 60 989 hurdat_epa main 1676 1676 O_____________ hurdat_epa EP111992 18.2000 -127.700 TS 60 989 0 9 279
1992213N12256 1992 62 EP MM JAVIER 1992-08-05 15:00:00 TS 18.2998 -128.150 main 1700 1700 P_____________ EP111992 18.2998 -128.150 TS 65 987 1 9 283
1992213N12256 1992 62 EP MM JAVIER 1992-08-05 18:00:00 TS 18.4000 -128.600 70 986 hurdat_epa main 1734 1734 O_____________ hurdat_epa EP111992 18.4000 -128.600 HU 70 986 1 9 281
1992213N12256 1992 62 EP MM JAVIER 1992-08-05 21:00:00 TS 18.4724 -129.085 main 1768 1768 P_____________ EP111992 18.4724 -129.085 HU 70 985 1 10 276
1992213N12256 1992 62 EP MM JAVIER 1992-08-06 00:00:00 TS 18.5000 -129.600 70 985 hurdat_epa main 1809 1809 O_____________ hurdat_epa EP111992 18.5000 -129.600 HU 70 985 1 10 270
1992213N12256 1992 62 EP MM JAVIER 1992-08-06 03:00:00 TS 18.4724 -130.143 main 1852 1852 P_____________ EP111992 18.4724 -130.143 HU 67 985 1 10 265
1992213N12256 1992 62 EP MM JAVIER 1992-08-06 06:00:00 TS 18.4000 -130.700 65 986 hurdat_epa main 1909 1909 O_____________ hurdat_epa EP111992 18.4000 -130.700 HU 65 986 1 11 261
1992213N12256 1992 62 EP MM JAVIER 1992-08-06 09:00:00 TS 18.3148 -131.242 main 1959 1959 P_____________ EP111992 18.3148 -131.242 HU 65 986 1 11 259
1992213N12256 1992 62 EP MM JAVIER 1992-08-06 12:00:00 TS 18.2000 -131.800 65 986 hurdat_epa main 2017 2017 O_____________ hurdat_epa EP111992 18.2000 -131.800 HU 65 986 1 11 257
1992213N12256 1992 62 EP MM JAVIER 1992-08-06 15:00:00 TS 18.0724 -132.392 main 2076 2076 P_____________ EP111992 18.0724 -132.392 HU 65 986 1 12 255
1992213N12256 1992 62 EP MM JAVIER 1992-08-06 18:00:00 TS 17.9000 -133.000 65 987 hurdat_epa main 2141 2141 O_____________ hurdat_epa EP111992 17.9000 -133.000 HU 65 987 1 12 250
1992213N12256 1992 62 EP MM JAVIER 1992-08-06 21:00:00 TS 17.6572 -133.593 main 2206 2184 P_____________ EP111992 17.6572 -133.593 HU 62 989 0 13 246
1992213N12256 1992 62 EP MM JAVIER 1992-08-07 00:00:00 TS 17.4000 -134.200 60 992 hurdat_epa main 2184 2125 O_____________ hurdat_epa EP111992 17.4000 -134.200 TS 60 992 0 13 248
1992213N12256 1992 62 EP MM JAVIER 1992-08-07 03:00:00 TS 17.1921 -134.820 main 2125 2056 P_____________ EP111992 17.1921 -134.820 TS 52 995 0 13 252
1992213N12256 1992 62 EP MM JAVIER 1992-08-07 06:00:00 TS 17.0000 -135.500 45 998 hurdat_epa main 2056 1987 O_____________ hurdat_epa EP111992 17.0000 -135.500 TS 45 998 0 14 254
1992213N12256 1992 62 EP MM JAVIER 1992-08-07 09:00:00 TS 16.7998 -136.270 main 1977 1898 P_____________ EP111992 16.7998 -136.270 TS 42 999 0 16 255
1992213N12256 1992 62 EP MM JAVIER 1992-08-07 12:00:00 TS 16.6000 -137.100 40 1001 hurdat_epa main 1898 1820 O_____________ hurdat_epa EP111992 16.6000 -137.100 TS 40 1001 0 16 256
1992213N12256 1992 62 EP MM JAVIER 1992-08-07 15:00:00 TS 16.3995 -137.920 main 1820 1743 P_____________ EP111992 16.3995 -137.920 TS 40 1001 0 17 256
1992213N12256 1992 62 EP MM JAVIER 1992-08-07 18:00:00 TS 16.2000 -138.800 40 1002 hurdat_epa main 1732 1645 O_____________ hurdat_epa EP111992 16.2000 -138.800 TS 40 1002 0 18 257
1992213N12256 1992 62 EP MM JAVIER 1992-08-07 21:00:00 TS 15.9775 -139.793 main 1635 1549 P_____________ EP111992 15.9775 -139.793 TS 40 1002 0 20 258
1992213N12256 1992 62 EP CP JAVIER 1992-08-08 00:00:00 TS 15.8000 -140.800 40 1003 hurdat_epa main 1539 1451 O_____________ hurdat_epa EP111992 15.8000 -140.800 TS 40 1003 0 19 262
1992213N12256 1992 62 EP CP JAVIER 1992-08-08 03:00:00 TS 15.7305 -141.725 main 1451 1360 P_____________ EP111992 15.7271 -141.730 TS 40 1003 0 17 267
1992213N12256 1992 62 EP CP JAVIER 1992-08-08 06:00:00 TS 15.7000 -142.600 40 1004 hurdat_epa main 1360 1280 O_____________ hurdat_epa EP111992 15.7000 -142.600 TS 40 1004 0 17 267
1992213N12256 1992 62 EP CP JAVIER 1992-08-08 09:00:00 TS 15.6500 -143.469 main 1270 1205 P_____________ EP111992 15.6500 -143.467 TS 40 1004 0 15 266
1992213N12256 1992 62 EP CP JAVIER 1992-08-08 12:00:00 TS 15.6000 -144.200 40 1005 hurdat_epa main 1205 1156 O_____________ hurdat_epa EP111992 15.6000 -144.200 TS 40 1005 0 12 265
1992213N12256 1992 62 EP CP JAVIER 1992-08-08 15:00:00 TS 15.5496 -144.722 main 1160 1121 P_____________ EP111992 15.5497 -144.740 TS 37 1005 0 8 263
1992213N12256 1992 62 EP CP JAVIER 1992-08-08 18:00:00 TS 15.5000 -145.075 35 1006 hurdat_epa main 1121 1102 O_____________ hurdat_epa EP111992 15.5000 -145.100 TS 35 1006 0 5 262
1992213N12256 1992 62 EP CP JAVIER 1992-08-08 21:00:00 TS 15.4721 -145.284 main 1102 1087 P_____________ EP111992 15.4720 -145.262 TS 32 1006 -1 5 258
1992213N12256 1992 62 EP CP JAVIER 1992-08-09 00:00:00 TS 15.4000 -145.550 30 1006 hurdat_epa main 1078 1041 O_____________ hurdat_epa EP111992 15.4000 -145.500 TD 30 1006 -1 9 252
1992213N12256 1992 62 EP CP JAVIER 1992-08-09 03:00:00 TS 15.2080 -146.147 main 1041 987 P_____________ EP111992 15.2082 -146.178 TD 30 1006 -1 13 252
1992213N12256 1992 62 EP CP JAVIER 1992-08-09 06:00:00 TS 15.0000 -146.800 30 1007 hurdat_epa main 987 957 O_____________ hurdat_epa EP111992 15.0000 -146.900 TD 30 1007 -1 11 254
1992213N12256 1992 62 EP CP JAVIER 1992-08-09 09:00:00 TS 14.9069 -147.206 main 957 928 P_____________ EP111992 14.9067 -147.234 TD 30 1007 -1 8 256
1992213N12256 1992 62 EP CP JAVIER 1992-08-09 12:00:00 TS 14.8000 -147.650 30 1008 hurdat_epa main 928 882 O_____________ hurdat_epa EP111992 14.8000 -147.600 TD 30 1008 -1 12 252
1992213N12256 1992 62 EP CP JAVIER 1992-08-09 15:00:00 TS 14.5430 -148.386 main 880 840 P_____________ EP111992 14.5432 -148.378 TD 30 1008 -1 15 251
1992213N12256 1992 62 EP CP JAVIER 1992-08-09 18:00:00 TS 14.3000 -149.150 30 1008 hurdat_epa main 840 802 O_____________ hurdat_epa EP111992 14.3000 -149.200 TD 30 1008 -1 13 256
1992213N12256 1992 62 EP CP JAVIER 1992-08-09 21:00:00 TS 14.2270 -149.690 main 802 766 P_____________ EP111992 14.2269 -149.722 TD 30 1008 -1 10 264
1992213N12256 1992 62 EP CP JAVIER 1992-08-10 00:00:00 TS 14.2000 -150.200 30 1008 hurdat_epa main 766 733 O_____________ hurdat_epa EP111992 14.2000 -150.200 TD 30 1008 -1 11 263
1992213N12256 1992 62 EP CP JAVIER 1992-08-10 03:00:00 TS 14.0926 -150.854 main 727 700 P_____________ EP111992 14.0927 -150.850 TD 30 1008 -1 13 261
1992213N12256 1992 62 EP CP JAVIER 1992-08-10 06:00:00 TS 14.0000 -151.500 30 1009 hurdat_epa main 700 673 O_____________ hurdat_epa EP111992 14.0000 -151.500 TD 30 1009 -1 11 265
1992213N12256 1992 62 EP CP JAVIER 1992-08-10 09:00:00 TS 13.9923 -152.030 main 673 645 P_____________ EP111992 13.9923 -152.030 TD 30 1009 -1 10 270
1992213N12256 1992 62 EP CP JAVIER 1992-08-10 12:00:00 TS 14.0000 -152.500 30 1009 hurdat_epa main 645 624 O_____________ hurdat_epa EP111992 14.0000 -152.500 TD 30 1009 -1 9 268
1992213N12256 1992 62 EP CP JAVIER 1992-08-10 15:00:00 TS 13.9574 -152.973 main 619 610 P_____________ EP111992 13.9574 -152.973 TD 27 1009 -1 9 263
1992213N12256 1992 62 EP CP JAVIER 1992-08-10 18:00:00 TS 13.9000 -153.400 25 1009 hurdat_epa main 610 598 O_____________ hurdat_epa EP111992 13.9000 -153.400 TD 25 1009 -1 8 262
1992213N12256 1992 62 EP CP JAVIER 1992-08-10 21:00:00 TS 13.8497 -153.739 main 609 595 P_____________ EP111992 13.8497 -153.735 TD 25 1009 -1 7 262
1992213N12256 1992 62 EP CP JAVIER 1992-08-11 00:00:00 TS 13.8000 -154.100 25 1009 hurdat_epa main 595 582 O_____________ hurdat_epa EP111992 13.8000 -154.100 TD 25 1009 -1 8 264
1992213N12256 1992 62 EP CP JAVIER 1992-08-11 03:00:00 TS 13.7575 -154.591 main 582 580 P_____________ EP111992 13.7576 -154.620 TD 25 1009 -1 10 264
1992213N12256 1992 62 EP CP JAVIER 1992-08-11 06:00:00 TS 13.7000 -155.150 25 1010 hurdat_epa main 585 582 O_____________ hurdat_epa EP111992 13.7000 -155.200 TD 25 1010 -1 11 264
1992213N12256 1992 62 EP CP JAVIER 1992-08-11 09:00:00 TS 13.6372 -155.695 main 593 593 P_____________ EP111992 13.6372 -155.720 TD 25 1010 -1 11 260
1992213N12256 1992 62 EP CP JAVIER 1992-08-11 12:00:00 TS 13.5000 -156.300 25 1010 hurdat_epa main 607 607 O_____________ hurdat_epa EP111992 13.5000 -156.300 TD 25 1010 -1 14 254
1992213N12256 1992 62 EP CP JAVIER 1992-08-11 15:00:00 TS 13.2528 -157.048 main 641 641 P_____________ EP111992 13.2529 -157.073 TD 25 1010 -1 15 247
1992213N12256 1992 62 EP CP JAVIER 1992-08-11 18:00:00 TS 12.9000 -157.750 25 1010 hurdat_epa main 708 708 O_____________ hurdat_epa EP111992 12.9000 -157.800 TD 25 1010 -1 14 236
1992213N12256 1992 62 EP CP JAVIER 1992-08-11 21:00:00 TS 12.4698 -158.243 main 764 764 P_____________ EP111992 12.4697 -158.280 TD 25 1010 -1 12 223
1992213N12256 1992 62 EP CP JAVIER 1992-08-12 00:00:00 TS 12.0000 -158.600 25 1010 hurdat_epa main 832 O_____________ hurdat_epa EP111992 12.0000 -158.600 TD 25 1010 -1 12 217

About IBTrACS Database

This database is a web-friendly format of International Best Track Archive for Climate Stewardship (IBTrACS), a global best track data archive curated by NOAA dating back to 1842.

Updated: 2021-12-03